.
WxDataArchive / Data Records for 2009-02-21
2009-02-20 February 2009 2009-02-22

Data Records for Saturday, 21 February 2009

Time	Temp	Chill	HIndex	Humid	Dewpt	 Wind 	HiWind	WindDir	Rain 	Barom 
-----	----	-----	------	-----	-----	------	------	-------	-----	----- 
00:00	14.0	14.0	14.0	83	9.8	0	0	---	0.00	30.175 
00:05	14.0	14.0	14.0	83	9.8	0	0	---	0.00	30.176 
00:10	13.8	13.8	13.8	83	9.6	0	0	---	0.00	30.178 
00:15	13.8	13.8	13.8	83	9.6	0	0	---	0.00	30.178 
00:20	13.6	13.6	13.6	84	9.7	0	0	---	0.00	30.179 
00:25	13.6	13.6	13.6	84	9.7	0	0	---	0.00	30.181 
00:30	13.5	13.5	13.5	84	9.6	0	0	---	0.00	30.183 
00:35	13.5	13.5	13.5	84	9.6	0	0	---	0.00	30.183 
00:40	13.3	13.3	13.3	84	9.4	0	0	---	0.00	30.179 
00:45	13.3	13.3	13.3	84	9.4	0	0	---	0.00	30.176 
00:50	13.1	13.1	13.1	84	9.2	0	0	---	0.00	30.174 
00:55	13.1	13.1	13.1	84	9.2	0	0	---	0.00	30.172 
01:00	13.1	13.1	13.1	84	9.2	0	0	---	0.00	30.172 
01:05	13.1	13.1	13.1	84	9.2	0	0	---	0.00	30.172 
01:10	13.3	13.3	13.3	85	9.7	0	0	---	0.00	30.174 
01:15	13.5	13.5	13.5	85	9.8	0	0	---	0.00	30.174 
01:20	13.6	13.6	13.6	85	9.9	0	0	---	0.00	30.173 
01:25	13.6	13.6	13.6	85	9.9	0	0	---	0.00	30.173 
01:30	13.6	13.6	13.6	85	9.9	0	0	---	0.00	30.173 
01:35	13.5	13.5	13.5	85	9.8	0	0	---	0.00	30.169 
01:40	13.5	13.5	13.5	85	9.8	0	0	---	0.00	30.166 
01:45	13.5	13.5	13.5	86	10.1	0	0	---	0.00	30.162 
01:50	13.8	13.8	13.8	86	10.4	0	1	248	0.00	30.157 
01:55	14.3	14.3	14.3	87	11.2	0	1	248	0.00	30.156 
02:00	14.8	14.8	14.8	86	11.4	0	0	---	0.00	30.152 
02:05	15.2	15.2	15.2	86	11.8	0	1	248	0.00	30.151 
02:10	15.4	15.4	15.4	86	12.0	0	0	---	0.00	30.150 
02:15	15.6	15.6	15.6	85	11.9	0	0	---	0.00	30.153 
02:20	15.7	15.7	15.7	85	12.0	0	0	---	0.00	30.151 
02:25	15.7	15.7	15.7	85	12.0	0	0	---	0.00	30.155 
02:30	15.7	15.7	15.7	84	11.7	0	1	248	0.00	30.148 
02:35	15.9	15.9	15.9	84	11.9	0	1	248	0.00	30.149 
02:40	16.1	16.1	16.1	84	12.1	0	1	248	0.00	30.140 
02:45	16.2	16.2	16.2	83	12.0	0	1	248	0.00	30.139 
02:50	16.4	16.4	16.4	83	12.2	0	1	248	0.00	30.139 
02:55	16.7	16.7	16.7	82	12.2	0	1	248	0.00	30.139 
03:00	16.9	16.9	16.9	82	12.4	0	1	248	0.00	30.137 
03:05	17.2	17.2	17.2	81	12.4	0	1	248	0.00	30.136 
03:10	17.2	17.2	17.2	80	12.1	0	1	248	0.00	30.135 
03:15	17.3	17.3	17.3	80	12.2	0	2	248	0.00	30.131 
03:20	17.5	17.5	17.5	79	12.1	0	2	248	0.00	30.131 
03:25	17.5	17.5	17.5	79	12.1	0	1	248	0.00	30.132 
03:30	17.7	17.7	17.7	79	12.3	0	1	248	0.00	30.128 
03:35	17.7	17.7	17.7	78	12.0	0	1	248	0.00	30.131 
03:40	17.8	17.8	17.8	78	12.1	0	1	248	0.00	30.130 
03:45	18.0	18.0	18.0	78	12.3	0	2	248	0.00	30.123 
03:50	18.3	18.3	18.3	78	12.6	0	1	248	0.00	30.121 
03:55	18.6	18.6	18.6	77	12.6	0	2	248	0.00	30.123 
04:00	19.1	19.1	19.1	77	13.1	1	2	90	0.00	30.120 
04:05	19.4	19.4	19.4	76	13.1	1	3	90	0.00	30.119 
04:10	19.7	19.7	19.7	76	13.4	0	3	90	0.00	30.120 
04:15	20.0	20.0	20.0	76	13.7	1	3	90	0.00	30.117 
04:20	20.3	20.3	20.3	75	13.7	2	4	90	0.00	30.114 
04:25	20.5	20.5	20.5	74	13.6	1	6	90	0.00	30.107 
04:30	20.6	20.6	20.6	74	13.7	1	6	112	0.00	30.104 
04:35	20.8	20.8	20.8	74	13.8	2	4	112	0.00	30.102 
04:40	21.0	21.0	21.0	74	14.0	2	4	112	0.00	30.095 
04:45	21.3	21.3	21.3	74	14.3	2	5	112	0.00	30.088 
04:50	21.4	21.4	21.4	75	14.7	1	4	135	0.00	30.086 
04:55	21.6	21.6	21.6	74	14.6	3	6	112	0.00	30.082 
05:00	21.8	21.8	21.8	74	14.8	2	5	112	0.00	30.077 
05:05	21.9	21.9	21.9	73	14.6	3	6	112	0.00	30.075 
05:10	22.2	22.2	22.2	73	14.9	2	6	112	0.00	30.074 
05:15	22.2	22.2	22.2	72	14.6	3	7	112	0.00	30.068 
05:20	22.4	22.4	22.4	72	14.8	3	6	112	0.00	30.063 
05:25	22.5	22.5	22.5	72	14.9	3	9	112	0.00	30.058 
05:30	22.5	22.5	22.5	72	14.9	3	9	112	0.00	30.057 
05:35	22.7	22.7	22.7	72	15.1	2	4	112	0.00	30.056 
05:40	22.9	22.9	22.9	71	14.9	2	7	90	0.00	30.062 
05:45	23.0	23.0	23.0	70	14.7	3	8	90	0.00	30.055 
05:50	23.3	23.3	23.3	69	14.7	3	9	90	0.00	30.055 
05:55	23.3	23.3	23.3	69	14.7	3	6	90	0.00	30.049 
06:00	23.5	23.5	23.5	69	14.9	3	7	112	0.00	30.038 
06:05	23.5	23.5	23.5	69	14.9	3	7	112	0.00	30.037 
06:10	23.6	18.4	23.6	69	14.9	4	9	112	0.00	30.027 
06:15	23.6	23.6	23.6	69	14.9	3	7	90	0.00	30.026 
06:20	23.8	23.8	23.8	69	15.1	3	7	90	0.00	30.026 
06:25	23.9	18.7	23.9	69	15.2	4	10	112	0.00	30.023 
06:30	24.1	19.0	24.1	68	15.1	4	10	112	0.00	30.013 
06:35	24.1	19.0	24.1	68	15.1	4	6	112	0.00	30.008 
06:40	24.2	19.1	24.2	69	15.5	4	7	112	0.00	30.007 
06:45	24.4	19.3	24.4	68	15.4	4	10	112	0.00	30.007 
06:50	24.5	24.5	24.5	68	15.5	3	6	112	0.00	30.008 
06:55	24.7	24.7	24.7	68	15.7	2	7	112	0.00	30.027 
07:00	24.7	24.7	24.7	69	16.0	1	4	112	0.00	30.028 
07:05	24.8	24.8	24.8	69	16.1	1	4	112	0.00	30.026 
07:10	24.8	24.8	24.8	69	16.1	1	3	90	0.00	30.027 
07:15	25.0	25.0	25.0	70	16.6	1	3	112	0.00	30.021 
07:20	25.1	25.1	25.1	74	18.0	2	5	112	0.00	30.016 
07:25	24.8	24.8	24.8	79	19.2	2	4	112	0.00	30.013 
07:30	24.7	24.7	24.7	82	20.0	2	6	112	0.00	30.002 
07:35	24.4	24.4	24.4	85	20.6	3	6	112	0.00	29.993 
07:40	24.2	24.2	24.2	87	20.9	3	7	112	0.00	29.988 
07:45	24.4	24.4	24.4	88	21.4	3	8	112	0.00	29.980 
07:50	24.4	19.3	24.4	89	21.6	4	6	112	0.00	29.977 
07:55	24.7	18.5	24.7	90	22.2	5	10	112	0.00	29.973 
08:00	24.8	24.8	24.8	91	22.6	3	7	112	0.00	29.961 
08:05	24.8	18.6	24.8	91	22.6	5	10	90	0.00	29.957 
08:10	25.0	20.0	25.0	91	22.8	4	9	112	0.00	29.955 
08:15	25.1	20.1	25.1	92	23.1	4	10	112	0.00	29.956 
08:20	25.3	25.3	25.3	92	23.3	2	5	90	0.00	29.964 
08:25	25.4	25.4	25.4	92	23.4	3	9	90	0.00	29.961 
08:30	25.7	25.7	25.7	92	23.7	3	6	90	0.00	29.960 
08:35	25.8	25.8	25.8	92	23.8	2	8	135	0.00	29.956 
08:40	26.0	26.0	26.0	92	24.0	2	7	68	0.00	29.959 
08:45	26.1	26.1	26.1	92	24.1	2	9	90	0.00	29.949 
08:50	26.3	26.3	26.3	92	24.3	2	5	112	0.00	29.950 
08:55	26.4	26.4	26.4	93	24.7	3	6	90	0.00	29.946 
09:00	26.7	26.7	26.7	93	25.0	3	7	90	0.00	29.930 
09:05	26.9	26.9	26.9	93	25.2	3	9	90	0.00	29.931 
09:10	27.0	27.0	27.0	93	25.3	3	8	90	0.00	29.928 
09:15	27.2	27.2	27.2	92	25.2	3	7	135	0.00	29.918 
09:20	27.3	27.3	27.3	92	25.3	3	5	112	0.00	29.918 
09:25	27.5	27.5	27.5	92	25.5	3	7	90	0.00	29.930 
09:30	27.6	27.6	27.6	92	25.6	2	5	90	0.00	29.930 
09:35	27.9	27.9	27.9	92	25.9	3	7	112	0.00	29.930 
09:40	28.1	28.1	28.1	92	26.1	3	9	90	0.00	29.932 
09:45	28.2	28.2	28.2	92	26.2	2	5	90	0.00	29.933 
09:50	28.5	28.5	28.5	92	26.5	2	7	112	0.00	29.931 
09:55	28.7	28.7	28.7	92	26.7	2	5	90	0.00	29.924 
10:00	28.8	28.8	28.8	92	26.8	2	4	90	0.00	29.917 
10:05	29.1	29.1	29.1	91	26.8	3	9	135	0.00	29.915 
10:10	29.4	29.4	29.4	91	27.1	2	7	90	0.00	29.912 
10:15	29.5	29.5	29.5	91	27.2	2	6	112	0.00	29.902 
10:20	29.8	29.8	29.8	91	27.5	3	10	112	0.00	29.900 
10:25	30.1	30.1	30.1	90	27.5	2	7	135	0.00	29.898 
10:30	30.3	30.3	30.3	90	27.7	2	6	90	0.00	29.890 
10:35	30.4	30.4	30.4	89	27.6	3	6	112	0.00	29.885 
10:40	30.6	30.6	30.6	89	27.8	2	5	112	0.00	29.881 
10:45	30.9	30.9	30.9	88	27.8	3	5	112	0.00	29.878 
10:50	31.2	31.2	31.2	88	28.1	2	5	112	0.00	29.876 
10:55	31.3	31.3	31.3	88	28.2	1	4	90	0.00	29.870 
11:00	31.6	31.6	31.6	87	28.2	2	7	112	0.00	29.871 
11:05	31.8	31.8	31.8	87	28.4	1	4	112	0.00	29.866 
11:10	31.9	31.9	31.9	87	28.5	1	4	112	0.00	29.864 
11:15	32.2	28.3	32.2	86	28.5	4	13	90	0.00	29.855 
11:20	32.7	32.7	32.7	85	28.7	3	7	90	0.00	29.852 
11:25	33.1	33.1	33.1	84	28.8	3	7	90	0.00	29.853 
11:30	33.2	29.5	33.2	83	28.6	4	10	112	0.00	29.851 
11:35	33.4	29.7	33.4	84	29.1	4	10	90	0.00	29.850 
11:40	33.2	29.5	33.2	86	29.5	4	12	90	0.00	29.851 
11:45	33.2	33.2	33.2	88	30.0	2	6	292	0.00	29.858 
11:50	33.1	33.1	33.1	89	30.2	2	7	292	0.00	29.853 
11:55	32.9	32.9	32.9	90	30.3	2	6	292	0.00	29.856 
12:00	32.9	32.9	32.9	91	30.6	3	7	248	0.00	29.853 
12:05	32.9	32.9	32.9	91	30.6	2	9	68	0.00	29.850 
12:10	32.9	32.9	32.9	92	30.8	2	6	248	0.00	29.849 
12:15	32.9	32.9	32.9	92	30.8	2	7	248	0.00	29.848 
12:20	33.1	33.1	33.1	92	31.0	2	5	248	0.00	29.842 
12:25	33.1	33.1	33.1	92	31.0	2	6	225	0.00	29.836 
12:30	33.1	33.1	33.1	93	31.3	2	7	225	0.00	29.834 
12:35	33.1	33.1	33.1	93	31.3	2	7	270	0.00	29.833 
12:40	33.1	33.1	33.1	93	31.3	2	7	225	0.00	29.830 
12:45	33.1	33.1	33.1	93	31.3	2	8	248	0.00	29.829 
12:50	33.1	33.1	33.1	93	31.3	3	9	248	0.00	29.822 
12:55	33.2	33.2	33.2	93	31.4	2	7	270	0.00	29.821 
13:00	33.2	33.2	33.2	93	31.4	3	7	248	0.00	29.820 
13:05	33.2	29.5	33.2	93	31.4	4	11	248	0.00	29.818 
13:10	33.4	29.7	33.4	93	31.6	4	10	248	0.00	29.817 
13:15	33.4	29.7	33.4	93	31.6	4	11	270	0.00	29.818 
13:20	33.5	29.8	33.5	93	31.7	4	8	270	0.00	29.816 
13:25	33.5	29.8	33.5	93	31.7	4	8	248	0.01	29.817 
13:30	33.5	29.8	33.5	93	31.7	4	10	248	0.00	29.817 
13:35	33.4	28.7	33.4	93	31.6	5	11	248	0.00	29.819 
13:40	32.9	28.1	32.9	93	31.1	5	14	270	0.01	29.825 
13:45	32.5	27.7	32.5	92	30.4	5	12	270	0.00	29.828 
13:50	32.2	26.5	32.2	92	30.1	6	14	270	0.01	29.827 
13:55	31.9	25.4	31.9	92	29.8	7	14	270	0.00	29.833 
14:00	31.9	28.0	31.9	92	29.8	4	10	270	0.01	29.832 
14:05	31.8	26.8	31.8	92	29.7	5	13	248	0.00	29.832 
14:10	31.8	31.8	31.8	92	29.7	3	7	248	0.00	29.833 
14:15	31.8	31.8	31.8	92	29.7	3	12	248	0.00	29.834 
14:20	30.9	24.9	30.9	91	28.6	6	13	248	0.01	29.833 
14:25	30.6	24.6	30.6	91	28.3	6	14	270	0.00	29.836 
14:30	30.4	24.3	30.4	91	28.1	6	13	248	0.00	29.839 
14:35	30.3	25.1	30.3	91	28.0	5	14	248	0.00	29.840 
14:40	30.3	24.2	30.3	90	27.7	6	13	270	0.00	29.846 
14:45	30.3	24.2	30.3	89	27.5	6	14	248	0.01	29.849 
14:50	30.4	25.2	30.4	89	27.6	5	10	270	0.00	29.850 
14:55	30.4	25.2	30.4	88	27.3	5	19	270	0.00	29.849 
15:00	30.7	25.5	30.7	88	27.6	5	13	248	0.00	29.849 
15:05	30.6	24.6	30.6	86	26.9	6	21	270	0.00	29.849 
15:10	29.5	22.5	29.5	84	25.3	7	17	270	0.00	29.863 
15:15	29.0	21.9	29.0	84	24.8	7	14	270	0.00	29.864 
15:20	28.5	23.0	28.5	83	24.0	5	13	270	0.01	29.866 
15:25	28.1	22.5	28.1	83	23.6	5	11	270	0.00	29.871 
15:30	27.9	22.3	27.9	83	23.4	5	11	270	0.00	29.877 
15:35	27.6	23.0	27.6	83	23.1	4	11	270	0.00	29.881 
15:40	27.3	21.6	27.3	83	22.8	5	13	270	0.00	29.884 
15:45	27.2	21.4	27.2	83	22.7	5	13	270	0.00	29.887 
15:50	26.9	20.2	26.9	82	22.2	6	12	270	0.00	29.889 
15:55	26.7	19.9	26.7	82	22.0	6	13	270	0.00	29.895 
16:00	26.6	19.0	26.6	80	21.3	7	17	270	0.00	29.898 
16:05	26.6	19.8	26.6	78	20.7	6	18	270	0.00	29.896 
16:10	26.6	19.0	26.6	75	19.8	7	15	270	0.00	29.897 
16:15	26.6	19.8	26.6	75	19.8	6	13	270	0.00	29.900 
16:20	26.4	18.7	26.4	75	19.6	7	16	270	0.00	29.903 
16:25	26.3	20.4	26.3	77	20.1	5	15	248	0.00	29.905 
16:30	26.0	19.1	26.0	78	20.1	6	13	270	0.00	29.912 
16:35	25.7	18.7	25.7	76	19.2	6	15	270	0.00	29.914 
16:40	25.7	17.2	25.7	73	18.3	8	18	270	0.00	29.918 
16:45	25.3	17.4	25.3	70	16.9	7	18	270	0.00	29.922 
16:50	25.0	17.9	25.0	71	16.9	6	13	270	0.00	29.928 
16:55	24.8	18.6	24.8	72	17.1	5	12	270	0.00	29.929 
17:00	24.7	17.5	24.7	72	17.0	6	15	270	0.00	29.930 
17:05	24.5	18.3	24.5	74	17.4	5	12	270	0.00	29.929 
17:10	24.5	18.3	24.5	74	17.4	5	12	270	0.00	29.933 
17:15	24.5	18.3	24.5	75	17.7	5	13	270	0.00	29.937 
17:20	24.5	17.3	24.5	76	18.0	6	16	270	0.00	29.937 
17:25	24.5	19.4	24.5	76	18.0	4	10	270	0.00	29.935 
17:30	24.4	19.3	24.4	76	17.9	4	10	270	0.00	29.939 
17:35	24.4	18.1	24.4	76	17.9	5	11	270	0.00	29.941 
17:40	24.4	18.1	24.4	77	18.2	5	13	270	0.00	29.943 
17:45	24.2	16.9	24.2	77	18.1	6	17	270	0.00	29.948 
17:50	24.1	16.8	24.1	78	18.3	6	14	270	0.00	29.951 
17:55	23.9	16.6	23.9	77	17.8	6	18	270	0.00	29.958 
18:00	23.8	16.5	23.8	75	17.1	6	12	270	0.00	29.960 
18:05	23.8	16.5	23.8	74	16.7	6	14	270	0.00	29.962 
18:10	23.6	16.2	23.6	73	16.2	6	13	270	0.00	29.966 
18:15	23.5	17.1	23.5	75	16.8	5	12	270	0.00	29.973 
18:20	23.0	14.7	23.0	77	16.9	7	15	270	0.00	29.974 
18:25	22.5	14.9	22.5	79	17.0	6	15	270	0.00	29.975 
18:30	22.2	14.6	22.2	80	17.0	6	13	270	0.00	29.978 
18:35	22.2	15.6	22.2	81	17.3	5	11	270	0.00	29.980 
18:40	22.1	16.6	22.1	81	17.2	4	12	270	0.00	29.981 
18:45	22.1	16.6	22.1	82	17.5	4	12	270	0.00	29.977 
18:50	21.8	13.2	21.8	80	16.6	7	16	270	0.00	29.982 
18:55	21.6	13.0	21.6	76	15.2	7	16	270	0.00	29.986 
19:00	21.4	11.9	21.4	75	14.7	8	21	270	0.00	29.989 
19:05	21.3	12.6	21.3	74	14.3	7	18	270	0.00	29.990 
19:10	21.3	13.5	21.3	74	14.3	6	16	270	0.00	29.990 
19:15	21.1	14.3	21.1	74	14.1	5	13	270	0.00	29.994 
19:20	21.3	12.6	21.3	74	14.3	7	14	270	0.00	29.991 
19:25	21.3	12.6	21.3	73	14.0	7	15	270	0.00	29.994 
19:30	21.3	15.7	21.3	73	14.0	4	14	270	0.00	29.994 
19:35	21.3	15.7	21.3	73	14.0	4	12	270	0.00	29.995 
19:40	21.3	14.5	21.3	73	14.0	5	14	270	0.00	29.994 
19:45	21.4	13.6	21.4	73	14.1	6	15	270	0.00	29.997 
19:50	21.6	13.0	21.6	73	14.3	7	14	270	0.00	30.002 
19:55	21.6	13.0	21.6	73	14.3	7	15	270	0.00	29.998 
20:00	21.6	14.9	21.6	73	14.3	5	14	270	0.00	29.998 
20:05	21.6	13.8	21.6	74	14.6	6	12	270	0.00	29.997 
20:10	21.8	16.3	21.8	74	14.8	4	12	270	0.00	29.996 
20:15	21.8	15.1	21.8	74	14.8	5	16	270	0.00	29.999 
20:20	21.8	15.1	21.8	74	14.8	5	14	270	0.00	29.998 
20:25	21.8	15.1	21.8	74	14.8	5	13	270	0.00	30.002 
20:30	21.9	14.2	21.9	75	15.2	6	15	270	0.00	30.001 
20:35	21.9	15.2	21.9	75	15.2	5	12	270	0.00	29.997 
20:40	21.9	15.2	21.9	75	15.2	5	12	248	0.00	29.997 
20:45	21.9	14.2	21.9	75	15.2	6	14	270	0.00	30.001 
20:50	21.9	15.2	21.9	76	15.5	5	12	270	0.00	30.004 
20:55	21.9	15.2	21.9	76	15.5	5	18	270	0.00	30.004 
21:00	21.8	15.1	21.8	76	15.4	5	12	270	0.00	30.002 
21:05	21.8	15.1	21.8	77	15.7	5	13	270	0.00	30.002 
21:10	21.8	14.1	21.8	77	15.7	6	14	270	0.00	30.004 
21:15	21.8	14.1	21.8	77	15.7	6	14	270	0.00	30.002 
21:20	21.8	13.2	21.8	77	15.7	7	15	270	0.00	30.002 
21:25	21.9	15.2	21.9	78	16.1	5	16	248	0.00	30.003 
21:30	21.9	14.2	21.9	78	16.1	6	13	248	0.00	30.004 
21:35	21.9	15.2	21.9	79	16.4	5	16	270	0.00	30.005 
21:40	21.9	16.4	21.9	79	16.4	4	9	270	0.00	30.005 
21:45	21.9	16.4	21.9	80	16.7	4	12	270	0.00	30.007 
21:50	22.1	15.4	22.1	80	16.9	5	12	270	0.00	30.008 
21:55	22.2	15.6	22.2	81	17.3	5	14	270	0.00	30.009 
22:00	22.2	16.8	22.2	81	17.3	4	13	248	0.00	30.008 
22:05	22.4	13.9	22.4	81	17.5	7	16	270	0.00	30.008 
22:10	22.4	15.8	22.4	81	17.5	5	12	248	0.00	30.010 
22:15	22.4	15.8	22.4	81	17.5	5	12	270	0.00	30.012 
22:20	22.5	17.1	22.5	81	17.6	4	9	270	0.00	30.014 
22:25	22.7	16.2	22.7	81	17.8	5	15	270	0.00	30.012 
22:30	22.9	16.4	22.9	79	17.4	5	13	270	0.00	30.014 
22:35	22.9	17.6	22.9	79	17.4	4	11	270	0.00	30.015 
22:40	22.9	16.4	22.9	79	17.4	5	15	248	0.00	30.015 
22:45	23.0	16.5	23.0	79	17.5	5	13	270	0.00	30.018 
22:50	23.0	17.7	23.0	79	17.5	4	12	270	0.00	30.017 
22:55	23.0	16.5	23.0	79	17.5	5	12	270	0.00	30.017 
23:00	23.0	16.5	23.0	78	17.2	5	12	270	0.00	30.017 
23:05	22.9	16.4	22.9	79	17.4	5	16	248	0.00	30.015 
23:10	22.9	17.6	22.9	78	17.1	4	12	270	0.00	30.017 
23:15	22.9	17.6	22.9	79	17.4	4	9	248	0.00	30.017 
23:20	22.9	16.4	22.9	78	17.1	5	13	248	0.00	30.017 
23:25	22.9	15.4	22.9	78	17.1	6	13	270	0.00	30.017 
23:30	23.0	16.5	23.0	78	17.2	5	16	270	0.00	30.018 
23:35	23.2	15.8	23.2	78	17.4	6	15	248	0.00	30.018 
23:40	23.2	16.7	23.2	77	17.1	5	15	270	0.00	30.020 
23:45	23.3	15.9	23.3	76	16.9	6	15	270	0.00	30.027 
23:50	23.5	17.1	23.5	76	17.1	5	12	270	0.00	30.025 
23:55	23.5	17.1	23.5	75	16.8	5	13	270	0.00	30.021 

CoCoRaHS
IN-AL-39
A2 Web Hosting
Creative Commons License
GoDaddy
search engine by freefind advanced

loaded 2018-11-19 11:23:30 • last modified 2010-11-18 10:43:29
Privacy PolicyDisclaimer
• wx.awcolley.com is powered by PmWiki v.2002016 •
• all content (unless otherwise noted) © 2018 A W Colley